sensor_id;sensor_type;location;lat;lon;timestamp;pressure;altitude;pressure_sealevel;temperature;humidity
13476;BME280;6810;63.824;20.288;2023-07-29T00:00:10;99760.69;;;16.33;81.10
13476;BME280;6810;63.824;20.288;2023-07-29T00:02:57;99758.84;;;16.33;81.66
13476;BME280;6810;63.824;20.288;2023-07-29T00:05:44;99761.53;;;16.33;81.40
13476;BME280;6810;63.824;20.288;2023-07-29T00:08:31;99752.44;;;16.34;81.68
13476;BME280;6810;63.824;20.288;2023-07-29T00:11:18;99757.84;;;16.34;81.34
13476;BME280;6810;63.824;20.288;2023-07-29T00:14:05;99744.38;;;16.34;81.92
13476;BME280;6810;63.824;20.288;2023-07-29T00:16:53;99743.53;;;16.34;81.64
13476;BME280;6810;63.824;20.288;2023-07-29T00:19:40;99735.22;;;16.27;81.41
13476;BME280;6810;63.824;20.288;2023-07-29T00:22:27;99743.69;;;16.32;81.62
13476;BME280;6810;63.824;20.288;2023-07-29T00:25:14;99731.94;;;16.33;82.05
13476;BME280;6810;63.824;20.288;2023-07-29T00:28:01;99738.16;;;16.34;81.98
13476;BME280;6810;63.824;20.288;2023-07-29T00:30:49;99731.09;;;16.33;81.83
13476;BME280;6810;63.824;20.288;2023-07-29T00:33:36;99739.16;;;16.33;81.49
13476;BME280;6810;63.824;20.288;2023-07-29T00:36:23;99716.78;;;16.32;81.82
13476;BME280;6810;63.824;20.288;2023-07-29T00:39:12;99683.56;;;16.06;81.96
13476;BME280;6810;63.824;20.288;2023-07-29T00:41:59;99722.16;;;16.32;81.38
13476;BME280;6810;63.824;20.288;2023-07-29T00:44:47;99718.81;;;16.30;82.17
13476;BME280;6810;63.824;20.288;2023-07-29T00:47:34;99713.28;;;16.32;81.64
13476;BME280;6810;63.824;20.288;2023-07-29T00:50:21;99675.72;;;16.13;81.94
13476;BME280;6810;63.824;20.288;2023-07-29T00:53:09;99700.66;;;16.32;81.41
13476;BME280;6810;63.824;20.288;2023-07-29T00:55:56;99700.66;;;16.32;81.42
13476;BME280;6810;63.824;20.288;2023-07-29T00:58:43;99696.13;;;16.33;81.45
13476;BME280;6810;63.824;20.288;2023-07-29T01:01:31;99690.75;;;16.33;81.99
13476;BME280;6810;63.824;20.288;2023-07-29T01:04:18;99681.66;;;16.34;82.36
13476;BME280;6810;63.824;20.288;2023-07-29T01:07:35;99689.88;;;16.32;82.05
13476;BME280;6810;63.824;20.288;2023-07-29T01:13:48;99680.53;;;16.36;82.47
13476;BME280;6810;63.824;20.288;2023-07-29T01:16:42;99680.53;;;16.36;82.76
13476;BME280;6810;63.824;20.288;2023-07-29T01:19:58;99666.94;;;16.38;82.55
13476;BME280;6810;63.824;20.288;2023-07-29T01:22:46;99655.63;;;16.34;82.48
13476;BME280;6810;63.824;20.288;2023-07-29T01:25:34;99668.47;;;16.40;82.14
13476;BME280;6810;63.824;20.288;2023-07-29T01:28:22;99663.78;;;16.42;82.11
13476;BME280;6810;63.824;20.288;2023-07-29T01:31:15;99661.97;;;16.43;82.17
13476;BME280;6810;63.824;20.288;2023-07-29T01:34:15;99656.59;;;16.43;82.41
13476;BME280;6810;63.824;20.288;2023-07-29T01:37:07;99660.09;;;16.43;82.31
13476;BME280;6810;63.824;20.288;2023-07-29T01:39:57;99654.19;;;16.40;82.27
13476;BME280;6810;63.824;20.288;2023-07-29T01:42:45;99655.59;;;16.44;82.55
13476;BME280;6810;63.824;20.288;2023-07-29T01:45:32;99647.38;;;16.45;82.50
13476;BME280;6810;63.824;20.288;2023-07-29T01:48:19;99655.31;;;16.47;82.59
13476;BME280;6810;63.824;20.288;2023-07-29T01:51:07;99579.84;;;16.04;82.99
13476;BME280;6810;63.824;20.288;2023-07-29T01:53:54;99648.91;;;16.48;83.29
13476;BME280;6810;63.824;20.288;2023-07-29T01:56:41;99642.56;;;16.49;83.00
13476;BME280;6810;63.824;20.288;2023-07-29T01:59:28;99640.53;;;16.51;83.20
13476;BME280;6810;63.824;20.288;2023-07-29T02:02:15;99633.00;;;16.54;83.69
13476;BME280;6810;63.824;20.288;2023-07-29T02:05:02;99634.69;;;16.55;82.88
13476;BME280;6810;63.824;20.288;2023-07-29T02:07:50;99638.09;;;16.57;83.09
13476;BME280;6810;63.824;20.288;2023-07-29T02:10:38;99623.72;;;16.49;83.53
13476;BME280;6810;63.824;20.288;2023-07-29T02:13:25;99640.47;;;16.60;83.64
13476;BME280;6810;63.824;20.288;2023-07-29T02:16:12;99633.25;;;16.61;83.77
13476;BME280;6810;63.824;20.288;2023-07-29T02:18:59;99633.09;;;16.62;83.52
13476;BME280;6810;63.824;20.288;2023-07-29T02:21:46;99636.59;;;16.63;83.67
13476;BME280;6810;63.824;20.288;2023-07-29T02:24:33;99640.16;;;16.63;83.95
13476;BME280;6810;63.824;20.288;2023-07-29T02:27:20;99638.16;;;16.65;83.55
13476;BME280;6810;63.824;20.288;2023-07-29T02:30:08;99631.94;;;16.65;83.64
13476;BME280;6810;63.824;20.288;2023-07-29T02:32:55;99617.41;;;16.58;82.83
13476;BME280;6810;63.824;20.288;2023-07-29T02:35:42;99627.41;;;16.65;83.56
13476;BME280;6810;63.824;20.288;2023-07-29T02:38:29;99622.03;;;16.65;83.20
13476;BME280;6810;63.824;20.288;2023-07-29T02:41:16;99589.72;;;16.48;83.31
13476;BME280;6810;63.824;20.288;2023-07-29T02:44:04;99581.16;;;16.44;83.00
13476;BME280;6810;63.824;20.288;2023-07-29T02:46:52;99612.25;;;16.64;83.39
13476;BME280;6810;63.824;20.288;2023-07-29T02:49:39;99617.78;;;16.63;83.01
13476;BME280;6810;63.824;20.288;2023-07-29T02:52:26;99606.19;;;16.62;83.55
13476;BME280;6810;63.824;20.288;2023-07-29T02:55:17;99602.50;;;16.63;82.87
13476;BME280;6810;63.824;20.288;2023-07-29T02:58:04;99609.56;;;16.64;83.69
13476;BME280;6810;63.824;20.288;2023-07-29T03:00:51;99607.88;;;16.63;82.66
13476;BME280;6810;63.824;20.288;2023-07-29T03:03:39;99590.66;;;16.56;82.98
13476;BME280;6810;63.824;20.288;2023-07-29T03:06:26;99601.94;;;16.60;83.46
13476;BME280;6810;63.824;20.288;2023-07-29T03:09:14;99610.88;;;16.60;83.28
13476;BME280;6810;63.824;20.288;2023-07-29T03:12:01;99602.66;;;16.62;82.89
13476;BME280;6810;63.824;20.288;2023-07-29T03:14:49;99610.56;;;16.63;83.10
13476;BME280;6810;63.824;20.288;2023-07-29T03:17:36;99607.88;;;16.63;83.17
13476;BME280;6810;63.824;20.288;2023-07-29T03:20:23;99601.13;;;16.59;83.79
13476;BME280;6810;63.824;20.288;2023-07-29T03:23:10;99602.66;;;16.62;83.30
13476;BME280;6810;63.824;20.288;2023-07-29T03:25:57;99610.94;;;16.68;83.46
13476;BME280;6810;63.824;20.288;2023-07-29T03:28:45;99567.69;;;16.44;83.98
13476;BME280;6810;63.824;20.288;2023-07-29T03:31:32;99606.53;;;16.67;83.08
13476;BME280;6810;63.824;20.288;2023-07-29T03:34:19;99607.41;;;16.68;83.67
13476;BME280;6810;63.824;20.288;2023-07-29T03:37:06;99613.78;;;16.67;82.78
13476;BME280;6810;63.824;20.288;2023-07-29T03:39:53;99615.63;;;16.66;83.57
13476;BME280;6810;63.824;20.288;2023-07-29T03:42:41;99613.94;;;16.65;83.14
13476;BME280;6810;63.824;20.288;2023-07-29T03:45:28;99625.38;;;16.67;83.86
13476;BME280;6810;63.824;20.288;2023-07-29T03:48:15;99627.41;;;16.65;83.16
13476;BME280;6810;63.824;20.288;2023-07-29T03:51:02;99628.78;;;16.69;83.29
13476;BME280;6810;63.824;20.288;2023-07-29T03:53:50;99615.31;;;16.69;83.88
13476;BME280;6810;63.824;20.288;2023-07-29T03:56:36;99613.47;;;16.70;83.24
13476;BME280;6810;63.824;20.288;2023-07-29T03:59:24;99609.94;;;16.69;83.92
13476;BME280;6810;63.824;20.288;2023-07-29T04:02:11;99609.13;;;16.69;82.79
13476;BME280;6810;63.824;20.288;2023-07-29T04:04:59;99611.81;;;16.69;83.47
13476;BME280;6810;63.824;20.288;2023-07-29T04:07:46;99594.56;;;16.62;83.40
13476;BME280;6810;63.824;20.288;2023-07-29T04:10:33;99604.00;;;16.66;83.01
13476;BME280;6810;63.824;20.288;2023-07-29T04:13:20;99603.25;;;16.56;83.26
13476;BME280;6810;63.824;20.288;2023-07-29T04:16:07;99610.88;;;16.60;83.70
13476;BME280;6810;63.824;20.288;2023-07-29T04:18:54;99602.97;;;16.59;83.49
13476;BME280;6810;63.824;20.288;2023-07-29T04:21:41;99609.34;;;16.58;83.17
13476;BME280;6810;63.824;20.288;2023-07-29T04:24:28;99600.72;;;16.54;83.76
13476;BME280;6810;63.824;20.288;2023-07-29T04:27:15;99593.13;;;16.50;83.71
13476;BME280;6810;63.824;20.288;2023-07-29T04:30:03;99605.19;;;16.46;83.88
13476;BME280;6810;63.824;20.288;2023-07-29T04:32:50;99626.63;;;16.55;84.27
13476;BME280;6810;63.824;20.288;2023-07-29T04:35:37;99633.00;;;16.54;83.97
13476;BME280;6810;63.824;20.288;2023-07-29T04:38:31;99626.09;;;16.52;83.46
13476;BME280;6810;63.824;20.288;2023-07-29T04:41:18;99635.16;;;16.51;83.93
13476;BME280;6810;63.824;20.288;2023-07-29T04:44:06;99645.91;;;16.51;83.87
13476;BME280;6810;63.824;20.288;2023-07-29T04:46:53;99628.25;;;16.48;83.80
13476;BME280;6810;63.824;20.288;2023-07-29T04:49:40;99624.19;;;16.44;84.18
13476;BME280;6810;63.824;20.288;2023-07-29T04:52:27;99608.31;;;16.41;84.24
13476;BME280;6810;63.824;20.288;2023-07-29T04:55:15;99607.22;;;16.34;84.96
13476;BME280;6810;63.824;20.288;2023-07-29T04:58:02;99608.38;;;16.32;84.76
13476;BME280;6810;63.824;20.288;2023-07-29T05:00:49;99604.06;;;16.39;84.73
13476;BME280;6810;63.824;20.288;2023-07-29T05:03:36;99614.00;;;16.38;85.46
13476;BME280;6810;63.824;20.288;2023-07-29T05:06:23;99618.38;;;16.39;85.04
13476;BME280;6810;63.824;20.288;2023-07-29T05:09:18;99602.84;;;16.33;85.09
13476;BME280;6810;63.824;20.288;2023-07-29T05:12:06;99612.84;;;16.41;85.10
13476;BME280;6810;63.824;20.288;2023-07-29T05:14:53;99590.38;;;16.32;85.52
13476;BME280;6810;63.824;20.288;2023-07-29T05:17:40;99601.22;;;16.40;85.18
13476;BME280;6810;63.824;20.288;2023-07-29T05:20:27;99592.19;;;16.41;86.00
13476;BME280;6810;63.824;20.288;2023-07-29T05:23:14;99590.47;;;16.40;85.94
13476;BME280;6810;63.824;20.288;2023-07-29T05:26:01;99587.94;;;16.39;85.71
13476;BME280;6810;63.824;20.288;2023-07-29T05:28:48;99598.38;;;16.42;86.46
13476;BME280;6810;63.824;20.288;2023-07-29T05:31:35;99599.97;;;16.44;86.44
13476;BME280;6810;63.824;20.288;2023-07-29T05:34:23;99597.28;;;16.44;86.24
13476;BME280;6810;63.824;20.288;2023-07-29T05:37:10;99608.88;;;16.45;86.41
13476;BME280;6810;63.824;20.288;2023-07-29T05:39:57;99601.50;;;16.47;86.95
13476;BME280;6810;63.824;20.288;2023-07-29T05:42:44;99612.09;;;16.48;86.98
13476;BME280;6810;63.824;20.288;2023-07-29T05:45:32;99616.47;;;16.49;86.30
13476;BME280;6810;63.824;20.288;2023-07-29T05:48:19;99607.44;;;16.50;86.24
13476;BME280;6810;63.824;20.288;2023-07-29T05:51:07;99617.88;;;16.53;87.12
13476;BME280;6810;63.824;20.288;2023-07-29T05:53:54;99610.63;;;16.54;86.55
13476;BME280;6810;63.824;20.288;2023-07-29T05:56:41;99609.66;;;16.55;87.06
13476;BME280;6810;63.824;20.288;2023-07-29T05:59:29;99602.56;;;16.54;87.30
13476;BME280;6810;63.824;20.288;2023-07-29T06:02:16;99596.81;;;16.49;86.63
13476;BME280;6810;63.824;20.288;2023-07-29T06:05:03;99603.97;;;16.58;86.85
13476;BME280;6810;63.824;20.288;2023-07-29T06:07:51;99610.41;;;16.65;86.86
13476;BME280;6810;63.824;20.288;2023-07-29T06:10:38;99606.69;;;16.66;87.63
13476;BME280;6810;63.824;20.288;2023-07-29T06:13:25;99611.09;;;16.67;87.72
13476;BME280;6810;63.824;20.288;2023-07-29T06:16:14;99605.41;;;16.70;87.10
13476;BME280;6810;63.824;20.288;2023-07-29T06:19:01;99568.06;;;16.49;87.44
13476;BME280;6810;63.824;20.288;2023-07-29T06:21:48;99608.66;;;16.73;87.33
13476;BME280;6810;63.824;20.288;2023-07-29T06:24:35;99613.72;;;16.76;87.72
13476;BME280;6810;63.824;20.288;2023-07-29T06:27:23;99603.41;;;16.72;87.48
13476;BME280;6810;63.824;20.288;2023-07-29T06:30:10;99614.22;;;16.80;87.97
13476;BME280;6810;63.824;20.288;2023-07-29T06:32:57;99606.84;;;16.82;88.06
13476;BME280;6810;63.824;20.288;2023-07-29T06:35:45;99604.88;;;16.84;88.08
13476;BME280;6810;63.824;20.288;2023-07-29T06:38:32;99604.56;;;16.87;87.61
13476;BME280;6810;63.824;20.288;2023-07-29T06:41:19;99562.81;;;16.65;87.72
13476;BME280;6810;63.824;20.288;2023-07-29T06:44:06;99594.44;;;16.89;88.19
13476;BME280;6810;63.824;20.288;2023-07-29T06:46:53;99605.06;;;16.90;88.36
13476;BME280;6810;63.824;20.288;2023-07-29T06:49:40;99594.13;;;16.92;87.82
13476;BME280;6810;63.824;20.288;2023-07-29T06:52:27;99603.75;;;16.94;88.36
13476;BME280;6810;63.824;20.288;2023-07-29T06:55:14;99600.75;;;16.97;88.30
13476;BME280;6810;63.824;20.288;2023-07-29T06:58:01;99611.38;;;16.99;87.80
13476;BME280;6810;63.824;20.288;2023-07-29T07:00:48;99613.06;;;17.00;88.58
13476;BME280;6810;63.824;20.288;2023-07-29T07:03:36;99616.44;;;17.02;88.44
13476;BME280;6810;63.824;20.288;2023-07-29T07:06:23;99622.53;;;17.04;87.85
13476;BME280;6810;63.824;20.288;2023-07-29T07:09:10;99617.97;;;17.04;87.60
13476;BME280;6810;63.824;20.288;2023-07-29T07:11:57;99595.16;;;16.91;87.81
13476;BME280;6810;63.824;20.288;2023-07-29T07:14:44;99621.03;;;17.09;88.25
13476;BME280;6810;63.824;20.288;2023-07-29T07:17:31;99611.94;;;17.10;88.25
13476;BME280;6810;63.824;20.288;2023-07-29T07:20:18;99595.44;;;17.05;87.69
13476;BME280;6810;63.824;20.288;2023-07-29T07:23:05;99608.28;;;17.11;87.97
13476;BME280;6810;63.824;20.288;2023-07-29T07:25:52;99614.16;;;17.15;88.00
13476;BME280;6810;63.824;20.288;2023-07-29T07:28:39;99618.41;;;17.17;88.15
13476;BME280;6810;63.824;20.288;2023-07-29T07:31:26;99626.50;;;17.17;87.87
13476;BME280;6810;63.824;20.288;2023-07-29T07:34:14;99633.56;;;17.18;87.59
13476;BME280;6810;63.824;20.288;2023-07-29T07:37:01;99633.25;;;17.21;88.43
13476;BME280;6810;63.824;20.288;2023-07-29T07:39:48;99622.09;;;17.16;88.38
13476;BME280;6810;63.824;20.288;2023-07-29T07:42:35;99628.41;;;17.25;87.78
13476;BME280;6810;63.824;20.288;2023-07-29T07:45:22;99624.53;;;17.27;87.78
13476;BME280;6810;63.824;20.288;2023-07-29T07:48:09;99624.22;;;17.30;87.84
13476;BME280;6810;63.824;20.288;2023-07-29T07:50:56;99631.00;;;17.35;88.05
13476;BME280;6810;63.824;20.288;2023-07-29T07:53:43;99624.25;;;17.39;88.79
13476;BME280;6810;63.824;20.288;2023-07-29T07:56:30;99624.81;;;17.42;88.21
13476;BME280;6810;63.824;20.288;2023-07-29T07:59:17;99626.03;;;17.48;88.66
13476;BME280;6810;63.824;20.288;2023-07-29T08:02:04;99612.09;;;17.52;88.13
13476;BME280;6810;63.824;20.288;2023-07-29T08:04:51;99606.38;;;17.55;88.52
13476;BME280;6810;63.824;20.288;2023-07-29T08:07:39;99612.13;;;17.60;88.22
13476;BME280;6810;63.824;20.288;2023-07-29T08:10:26;99610.94;;;17.63;88.60
13476;BME280;6810;63.824;20.288;2023-07-29T08:13:13;99618.72;;;17.66;88.74
13476;BME280;6810;63.824;20.288;2023-07-29T08:16:00;99623.47;;;17.72;88.58
13476;BME280;6810;63.824;20.288;2023-07-29T08:18:47;99613.38;;;17.74;87.71
13476;BME280;6810;63.824;20.288;2023-07-29T08:21:34;99606.31;;;17.73;88.24
13476;BME280;6810;63.824;20.288;2023-07-29T08:24:21;99611.53;;;17.74;87.92
13476;BME280;6810;63.824;20.288;2023-07-29T08:27:08;99591.44;;;17.69;88.12
13476;BME280;6810;63.824;20.288;2023-07-29T08:29:55;99614.56;;;17.79;88.08
13476;BME280;6810;63.824;20.288;2023-07-29T08:32:42;99623.56;;;17.88;88.26
13476;BME280;6810;63.824;20.288;2023-07-29T08:35:29;99563.78;;;17.59;87.75
13476;BME280;6810;63.824;20.288;2023-07-29T08:38:17;99625.44;;;17.95;87.91
13476;BME280;6810;63.824;20.288;2023-07-29T08:41:16;99613.47;;;17.98;88.26
13476;BME280;6810;63.824;20.288;2023-07-29T08:44:21;99614.00;;;18.01;87.75
13476;BME280;6810;63.824;20.288;2023-07-29T08:47:12;99619.06;;;18.04;87.55
13476;BME280;6810;63.824;20.288;2023-07-29T08:50:03;99614.19;;;18.08;87.47
13476;BME280;6810;63.824;20.288;2023-07-29T08:52:51;99619.25;;;18.11;87.57
13476;BME280;6810;63.824;20.288;2023-07-29T08:55:39;99605.06;;;18.09;87.80
13476;BME280;6810;63.824;20.288;2023-07-29T08:58:26;99608.63;;;18.17;87.41
13476;BME280;6810;63.824;20.288;2023-07-29T09:01:14;99617.94;;;18.23;87.54
13476;BME280;6810;63.824;20.288;2023-07-29T09:03:42;99623.81;;;18.26;87.27
13476;BME280;6810;63.824;20.288;2023-07-29T09:06:10;99615.44;;;18.29;87.43
13476;BME280;6810;63.824;20.288;2023-07-29T09:08:38;99615.56;;;18.28;87.15
13476;BME280;6810;63.824;20.288;2023-07-29T09:11:05;99595.84;;;18.19;86.92
13476;BME280;6810;63.824;20.288;2023-07-29T09:13:32;99624.72;;;18.35;86.58
13476;BME280;6810;63.824;20.288;2023-07-29T09:16:00;99628.78;;;18.39;87.30
13476;BME280;6810;63.824;20.288;2023-07-29T09:18:27;99622.41;;;18.40;86.23
13476;BME280;6810;63.824;20.288;2023-07-29T09:20:58;99624.78;;;18.43;86.72
13476;BME280;6810;63.824;20.288;2023-07-29T09:23:26;99627.97;;;18.46;86.37
13476;BME280;6810;63.824;20.288;2023-07-29T09:26:02;99592.16;;;18.28;86.05
13476;BME280;6810;63.824;20.288;2023-07-29T09:28:33;99618.72;;;18.49;86.40
13476;BME280;6810;63.824;20.288;2023-07-29T09:31:01;99628.50;;;18.58;85.36
13476;BME280;6810;63.824;20.288;2023-07-29T09:33:32;99625.28;;;18.62;85.71
13476;BME280;6810;63.824;20.288;2023-07-29T09:36:07;99630.34;;;18.65;85.30
13476;BME280;6810;63.824;20.288;2023-07-29T09:38:35;99634.41;;;18.69;85.05
13476;BME280;6810;63.824;20.288;2023-07-29T09:41:02;99629.53;;;18.73;85.08
13476;BME280;6810;63.824;20.288;2023-07-29T09:43:31;99622.28;;;18.73;84.77
13476;BME280;6810;63.824;20.288;2023-07-29T09:46:03;99632.22;;;18.81;84.00
13476;BME280;6810;63.824;20.288;2023-07-29T09:48:35;99632.56;;;18.86;83.78
13476;BME280;6810;63.824;20.288;2023-07-29T09:51:12;99632.91;;;18.91;83.66
13476;BME280;6810;63.824;20.288;2023-07-29T09:53:47;99625.66;;;18.91;83.79
13476;BME280;6810;63.824;20.288;2023-07-29T09:56:15;99632.75;;;19.01;82.64
13476;BME280;6810;63.824;20.288;2023-07-29T09:58:44;99619.06;;;19.02;82.15
13476;BME280;6810;63.824;20.288;2023-07-29T10:01:13;99623.44;;;19.03;81.74
13476;BME280;6810;63.824;20.288;2023-07-29T10:03:41;99628.34;;;19.08;81.38
13476;BME280;6810;63.824;20.288;2023-07-29T10:06:10;99628.16;;;19.09;81.49
13476;BME280;6810;63.824;20.288;2023-07-29T10:08:39;99627.16;;;19.10;80.21
13476;BME280;6810;63.824;20.288;2023-07-29T10:11:07;99635.28;;;19.10;80.65
13476;BME280;6810;63.824;20.288;2023-07-29T10:13:36;99628.84;;;19.11;80.26
13476;BME280;6810;63.824;20.288;2023-07-29T10:16:03;99633.41;;;19.11;80.02
13476;BME280;6810;63.824;20.288;2023-07-29T10:18:33;99625.13;;;19.12;79.78
13476;BME280;6810;63.824;20.288;2023-07-29T10:21:01;99623.28;;;19.13;80.10
13476;BME280;6810;63.824;20.288;2023-07-29T10:23:32;99632.06;;;19.15;79.93
13476;BME280;6810;63.824;20.288;2023-07-29T10:26:05;99627.47;;;19.15;79.51
13476;BME280;6810;63.824;20.288;2023-07-29T10:28:39;99627.13;;;19.18;78.79
13476;BME280;6810;63.824;20.288;2023-07-29T10:31:07;99628.50;;;19.22;79.09
13476;BME280;6810;63.824;20.288;2023-07-29T10:33:34;99629.16;;;19.24;78.49
13476;BME280;6810;63.824;20.288;2023-07-29T10:36:02;99629.84;;;19.26;78.58
13476;BME280;6810;63.824;20.288;2023-07-29T10:38:30;99632.72;;;19.25;78.17
13476;BME280;6810;63.824;20.288;2023-07-29T10:40:57;99635.63;;;19.31;78.19
13476;BME280;6810;63.824;20.288;2023-07-29T10:43:35;99602.84;;;19.10;78.01
13476;BME280;6810;63.824;20.288;2023-07-29T10:46:21;99594.41;;;19.05;78.02
13476;BME280;6810;63.824;20.288;2023-07-29T10:48:56;99634.75;;;19.31;77.87
13476;BME280;6810;63.824;20.288;2023-07-29T10:51:34;99639.66;;;19.43;77.91
13476;BME280;6810;63.824;20.288;2023-07-29T10:54:12;99637.94;;;19.50;77.71
13476;BME280;6810;63.824;20.288;2023-07-29T10:56:42;99642.66;;;19.56;77.39
13476;BME280;6810;63.824;20.288;2023-07-29T11:01:51;99629.28;;;19.63;76.51
13476;BME280;6810;63.824;20.288;2023-07-29T11:17:47;99620.72;;;19.98;74.92
13476;BME280;6810;63.824;20.288;2023-07-29T11:20:17;99645.53;;;20.09;74.32
13476;BME280;6810;63.824;20.288;2023-07-29T11:22:44;99642.63;;;20.19;73.74
13476;BME280;6810;63.824;20.288;2023-07-29T11:25:14;99637.53;;;20.24;72.91
13476;BME280;6810;63.824;20.288;2023-07-29T11:27:41;99628.34;;;20.33;72.47
13476;BME280;6810;63.824;20.288;2023-07-29T11:30:13;99638.09;;;20.42;72.19
13476;BME280;6810;63.824;20.288;2023-07-29T11:32:43;99637.19;;;20.49;71.25
13476;BME280;6810;63.824;20.288;2023-07-29T11:35:15;99645.47;;;20.56;70.79
13476;BME280;6810;63.824;20.288;2023-07-29T11:37:47;99655.75;;;20.60;71.06
13476;BME280;6810;63.824;20.288;2023-07-29T11:40:16;99640.00;;;20.64;70.74
13476;BME280;6810;63.824;20.288;2023-07-29T11:42:45;99653.38;;;20.66;70.54
13476;BME280;6810;63.824;20.288;2023-07-29T11:45:13;99660.09;;;20.70;70.28
13476;BME280;6810;63.824;20.288;2023-07-29T11:47:44;99649.44;;;20.68;69.80
13476;BME280;6810;63.824;20.288;2023-07-29T11:50:13;99655.00;;;20.75;69.37
13476;BME280;6810;63.824;20.288;2023-07-29T11:52:44;99654.44;;;20.79;69.57
13476;BME280;6810;63.824;20.288;2023-07-29T11:55:13;99656.63;;;20.84;69.36
13476;BME280;6810;63.824;20.288;2023-07-29T11:57:42;99669.44;;;20.90;69.20
13476;BME280;6810;63.824;20.288;2023-07-29T12:00:10;99667.03;;;20.95;68.90
13476;BME280;6810;63.824;20.288;2023-07-29T12:02:41;99661.97;;;21.00;68.24
13476;BME280;6810;63.824;20.288;2023-07-29T12:05:09;99668.31;;;21.07;67.43
13476;BME280;6810;63.824;20.288;2023-07-29T12:07:41;99653.66;;;21.01;67.46
13476;BME280;6810;63.824;20.288;2023-07-29T12:10:09;99675.56;;;21.14;67.51
13476;BME280;6810;63.824;20.288;2023-07-29T12:12:44;99675.19;;;21.17;66.85
13476;BME280;6810;63.824;20.288;2023-07-29T12:15:12;99683.31;;;21.17;66.74
13476;BME280;6810;63.824;20.288;2023-07-29T12:17:40;99673.16;;;21.19;65.19
13476;BME280;6810;63.824;20.288;2023-07-29T12:20:09;99680.59;;;21.17;64.36
13476;BME280;6810;63.824;20.288;2023-07-29T12:22:37;99683.69;;;21.14;64.24
13476;BME280;6810;63.824;20.288;2023-07-29T12:25:04;99681.88;;;21.07;64.23
13476;BME280;6810;63.824;20.288;2023-07-29T12:27:32;99693.56;;;21.07;64.68
13476;BME280;6810;63.824;20.288;2023-07-29T12:30:01;99686.63;;;21.05;64.81
13476;BME280;6810;63.824;20.288;2023-07-29T12:32:31;99691.59;;;21.01;64.97
13476;BME280;6810;63.824;20.288;2023-07-29T12:34:59;99679.63;;;20.88;65.20
13476;BME280;6810;63.824;20.288;2023-07-29T12:37:32;99685.16;;;20.94;64.49
13476;BME280;6810;63.824;20.288;2023-07-29T12:40:00;99679.91;;;20.93;64.75
13476;BME280;6810;63.824;20.288;2023-07-29T12:42:27;99682.16;;;20.89;64.72
13476;BME280;6810;63.824;20.288;2023-07-29T12:44:54;99674.91;;;20.82;64.77
13476;BME280;6810;63.824;20.288;2023-07-29T12:47:21;99672.28;;;20.74;65.18
13476;BME280;6810;63.824;20.288;2023-07-29T12:49:48;99683.53;;;20.85;65.22
13476;BME280;6810;63.824;20.288;2023-07-29T12:52:15;99694.38;;;20.85;65.53
13476;BME280;6810;63.824;20.288;2023-07-29T12:54:42;99685.56;;;20.83;66.15
13476;BME280;6810;63.824;20.288;2023-07-29T12:57:11;99692.88;;;20.83;66.08
13476;BME280;6810;63.824;20.288;2023-07-29T12:59:38;99690.97;;;20.83;65.85
13476;BME280;6810;63.824;20.288;2023-07-29T13:02:05;99691.34;;;20.80;65.69
13476;BME280;6810;63.824;20.288;2023-07-29T13:04:33;99634.22;;;20.44;65.96
13476;BME280;6810;63.824;20.288;2023-07-29T13:07:01;99697.44;;;20.82;66.18
13476;BME280;6810;63.824;20.288;2023-07-29T13:09:28;99692.03;;;20.82;65.87
13476;BME280;6810;63.824;20.288;2023-07-29T13:11:55;99701.00;;;20.83;65.80
13476;BME280;6810;63.824;20.288;2023-07-29T13:14:22;99698.09;;;20.84;65.55
13476;BME280;6810;63.824;20.288;2023-07-29T13:16:49;99690.81;;;20.85;65.92
13476;BME280;6810;63.824;20.288;2023-07-29T13:19:16;99696.22;;;20.85;65.98
13476;BME280;6810;63.824;20.288;2023-07-29T13:21:45;99698.78;;;20.86;66.32
13476;BME280;6810;63.824;20.288;2023-07-29T13:24:12;99700.28;;;20.89;66.15
13476;BME280;6810;63.824;20.288;2023-07-29T13:26:39;99694.69;;;20.90;66.28
13476;BME280;6810;63.824;20.288;2023-07-29T13:29:06;99694.31;;;20.93;65.91
13476;BME280;6810;63.824;20.288;2023-07-29T13:31:35;99704.81;;;20.96;65.54
13476;BME280;6810;63.824;20.288;2023-07-29T13:34:03;99701.75;;;20.99;65.26
13476;BME280;6810;63.824;20.288;2023-07-29T13:36:30;99702.44;;;21.01;65.11
13476;BME280;6810;63.824;20.288;2023-07-29T13:38:57;99708.31;;;21.05;64.60
13476;BME280;6810;63.824;20.288;2023-07-29T13:41:24;99697.28;;;21.06;64.66
13476;BME280;6810;63.824;20.288;2023-07-29T13:43:51;99698.81;;;21.09;64.79
13476;BME280;6810;63.824;20.288;2023-07-29T13:46:18;99699.28;;;21.12;65.04
13476;BME280;6810;63.824;20.288;2023-07-29T13:48:48;99704.34;;;21.15;64.79
13476;BME280;6810;63.824;20.288;2023-07-29T13:51:16;99653.53;;;20.87;64.30
13476;BME280;6810;63.824;20.288;2023-07-29T13:53:43;99704.81;;;21.19;64.26
13476;BME280;6810;63.824;20.288;2023-07-29T13:56:10;99694.66;;;21.21;63.94
13476;BME280;6810;63.824;20.288;2023-07-29T13:58:37;99694.16;;;21.17;64.13
13476;BME280;6810;63.824;20.288;2023-07-29T14:01:04;99702.59;;;21.22;64.26
13476;BME280;6810;63.824;20.288;2023-07-29T14:03:31;99695.97;;;21.25;63.52
13476;BME280;6810;63.824;20.288;2023-07-29T14:05:58;99706.63;;;21.26;63.55
13476;BME280;6810;63.824;20.288;2023-07-29T14:08:25;99700.00;;;21.29;63.58
13476;BME280;6810;63.824;20.288;2023-07-29T14:10:52;99700.00;;;21.29;63.63
13476;BME280;6810;63.824;20.288;2023-07-29T14:13:19;99703.34;;;21.31;63.70
13476;BME280;6810;63.824;20.288;2023-07-29T14:15:46;99693.25;;;21.25;63.66
13476;BME280;6810;63.824;20.288;2023-07-29T14:18:13;99710.94;;;21.35;63.88
13476;BME280;6810;63.824;20.288;2023-07-29T14:20:40;99702.63;;;21.37;63.78
13476;BME280;6810;63.824;20.288;2023-07-29T14:23:07;99706.00;;;21.39;63.90
13476;BME280;6810;63.824;20.288;2023-07-29T14:25:34;99686.66;;;21.42;63.45
13476;BME280;6810;63.824;20.288;2023-07-29T14:28:01;99701.34;;;21.47;62.44